Accueil
METAR-TAF:

METAR-TAF

Aéroports :

Bedford, Massachusetts, États-Unis

latitude: 42-28-06N, longitude: 071-17-40W, altitude: 40 m

Observation

Le bulletin a été fait il y a 17 minutes, à 10:56 UTC
Vent calme
Température -8°C
Humidité 79%
Pression 1018 hPa
Visibilité: 16.1 km
Ciel clair

METAR: KBED 101056Z AUTO 00000KT 10SM CLR M08/M11 A3007 RMK AO2 SLP199 I1000 T10781106

Heure: 06:13 (11:13 UTC)

Prévision

Le bulletin a été fait il y a 5 heures et 33 minutes, à 05:40 UTC
Prévision valable du 10 à 06 UTC au 11 à 06 UTC
Vent 4 kt de ouest
Visibilité: 10 km
Nuages épars à une hauteur de 25000 ft
A partir de 10 à 1100 UTC
Vent 4 kt de ouest/nord-ouest
Visibilité: 10 km
Quelques nuages à une hauteur de 25000 ft
A partir de 10 à 1500 UTC
Vent 7 kt de nord/nord-ouest
Visibilité: 10 km
Ciel clair

TAF: KBED 100540Z 1006/1106 26004KT P6SM SCT250 FM101100 30004KT P6SM FEW250 FM101500 33007KT P6SM SKC

Observations et prévisions météorologiques de plus de 4000 aéroports (messages METAR et TAF).

Les stations disponibles sont représentées par des disques jaunes et rouges sur la carte.

Passer la souris dessus pour voir le nom de la station.

Cliquer dessus pour voir les observations et prévisions météorologiques.

Pour changer de carte: cliquez sur les boutons verts avec une croix noire pour zoomer, sur le bouton vert avec un tiret pour effectuer un zoom arrière, ou sur les flèches vertes pour les cartes adjacentes.


METAR-TAF: